Terminal Aerodrome Forecast
Issued by NWS Central Illinois

Home | Current Version | Previous Version | Text Only | Print | Product List | Glossary On
Versions: 1 2 3 4 5 6 7 8 9 10 11 12 13 14 15 16 17 18
526
FTUS43 KILX 251232 AAA
TAFSPI
TAF AMD
KSPI 251232Z 2513/2612 09010KT P6SM VCSH SCT025 OVC120
     FM251600 10013KT P6SM OVC080
     FM252000 12012KT P6SM VCTS OVC050CB
     FM260000 11010KT P6SM VCSH OVC050
     FM260400 12008KT P6SM OVC025
     FM260900 16008KT 4SM BR OVC015=

USA.gov is the U.S. government's official web portal to all federal, state and local government web resources and services.